Time;durP1;ratioP1;P1;durP2;ratioP2;P2;SDS_P1;SDS_P2;PMS_P1;PMS_P2;Temp;Humidity;BMP_temperature;BMP_pressure;BME280_temperature;BME280_humidity;BME280_pressure;Samples;Min_cycle;Max_cycle;Signal;HPM_P1;HPM_P2
2022/05/04 00:01:37;;;;;;;6.25;1.60;;;8.50;99.90;;;;;;4951489;29;20486;-77
2022/05/04 00:04:03;;;;;;;6.47;1.42;;;8.50;99.90;;;;;;4953420;29;20031;-78
2022/05/04 00:06:28;;;;;;;6.55;1.70;;;8.40;99.90;;;;;;4940899;29;20051;-78
2022/05/04 00:08:54;;;;;;;7.47;1.80;;;8.40;99.90;;;;;;4941773;29;20051;-78
2022/05/04 00:11:19;;;;;;;8.50;2.33;;;8.40;99.90;;;;;;4937351;29;20415;-77
2022/05/04 00:13:45;;;;;;;11.13;2.60;;;8.40;99.90;;;;;;4933820;29;20496;-78
2022/05/04 00:16:11;;;;;;;12.50;2.42;;;8.40;99.90;;;;;;4940328;29;20043;-78
2022/05/04 00:18:36;;;;;;;6.93;1.83;;;8.40;99.90;;;;;;4946560;29;20486;-78
2022/05/04 00:21:02;;;;;;;5.43;1.98;;;8.40;99.90;;;;;;4952989;29;20040;-78
2022/05/04 00:23:27;;;;;;;6.25;2.80;;;8.40;99.90;;;;;;4968895;28;20054;-78
2022/05/04 00:25:53;;;;;;;8.20;2.45;;;8.40;99.90;;;;;;4945977;29;20442;-78
2022/05/04 00:28:19;;;;;;;8.02;1.67;;;8.40;99.90;;;;;;4936048;28;20048;-77
2022/05/04 00:30:45;;;;;;;10.90;2.63;;;8.40;99.90;;;;;;4938958;29;20047;-78
2022/05/04 00:33:10;;;;;;;8.30;1.92;;;8.40;99.90;;;;;;4934268;29;20071;-78
2022/05/04 00:35:37;;;;;;;9.18;3.15;;;8.40;99.90;;;;;;4944738;29;20043;-78
2022/05/04 00:38:02;;;;;;;7.72;1.63;;;8.40;99.90;;;;;;4937415;28;20058;-78
2022/05/04 00:40:28;;;;;;;8.60;1.98;;;8.40;99.90;;;;;;4933403;29;20044;-78
2022/05/04 00:42:53;;;;;;;7.90;1.60;;;8.40;99.90;;;;;;4933430;29;20043;-78
2022/05/04 00:45:19;;;;;;;6.47;2.08;;;8.40;99.90;;;;;;4933426;29;20036;-78
2022/05/04 00:47:45;;;;;;;5.65;1.50;;;8.40;99.90;;;;;;4932192;29;20070;-78
2022/05/04 00:50:11;;;;;;;4.75;1.80;;;8.40;99.90;;;;;;4950463;29;20079;-78
2022/05/04 00:52:40;;;;;;;9.98;2.38;;;8.40;99.90;;;;;;4936401;29;20039;-78
2022/05/04 00:55:08;;;;;;;4.93;1.33;;;8.30;99.90;;;;;;4952390;29;20081;-77
2022/05/04 01:00:20;;;;;;;13.68;2.35;;;8.30;99.90;;;;;;4933098;29;20055;-78
2022/05/04 01:02:45;;;;;;;7.75;1.88;;;8.30;99.90;;;;;;4933077;29;20388;-78
2022/05/04 01:05:12;;;;;;;7.88;1.73;;;8.30;99.90;;;;;;4933067;29;20047;-78
2022/05/04 01:07:39;;;;;;;6.93;2.75;;;8.30;99.90;;;;;;4940290;29;20083;-77
2022/05/04 01:10:05;;;;;;;5.25;1.65;;;8.30;99.90;;;;;;4949175;29;20094;-78
2022/05/04 01:12:31;;;;;;;3.22;1.30;;;8.30;99.90;;;;;;4952199;29;20453;-78
2022/05/04 01:14:58;;;;;;;9.90;2.20;;;8.30;99.90;;;;;;4937807;29;20379;-78
2022/05/04 01:17:24;;;;;;;13.15;2.70;;;8.30;99.90;;;;;;4931372;29;20035;-78
2022/05/04 01:19:50;;;;;;;14.40;1.92;;;8.30;99.90;;;;;;4937470;29;20532;-78
2022/05/04 01:22:15;;;;;;;7.00;1.83;;;8.30;99.90;;;;;;4932086;29;20047;-78
2022/05/04 01:24:41;;;;;;;10.77;2.58;;;8.30;99.90;;;;;;4940615;29;20055;-78
2022/05/04 01:27:12;;;;;;;8.20;2.05;;;8.30;99.90;;;;;;4945894;29;20047;-78
2022/05/04 01:29:38;;;;;;;9.25;1.45;;;8.30;99.90;;;;;;4946047;29;20047;-78
2022/05/04 01:32:04;;;;;;;3.28;1.33;;;8.30;99.90;;;;;;4939781;29;20050;-78
2022/05/04 01:34:30;;;;;;;9.00;1.50;;;8.20;99.90;;;;;;4932273;29;20066;-78
2022/05/04 01:36:55;;;;;;;6.47;1.65;;;8.20;99.90;;;;;;4940482;28;20390;-78
2022/05/04 01:39:21;;;;;;;5.40;1.38;;;8.20;99.90;;;;;;4939090;29;20078;-78
2022/05/04 01:44:34;;;;;;;7.00;1.77;;;8.20;99.90;;;;;;4951470;29;20059;-78
2022/05/04 01:47:00;;;;;;;6.70;2.13;;;8.20;99.90;;;;;;4945780;29;20047;-78
2022/05/04 01:49:26;;;;;;;7.88;1.95;;;8.10;99.90;;;;;;4937283;29;20039;-78
2022/05/04 01:51:52;;;;;;;5.13;2.03;;;8.10;99.90;;;;;;4943297;29;20043;-78
2022/05/04 01:54:17;;;;;;;9.70;2.05;;;8.10;99.90;;;;;;4932354;29;20424;-78
2022/05/04 01:56:43;;;;;;;5.72;1.77;;;8.10;99.90;;;;;;4936930;29;20035;-78
2022/05/04 01:59:09;;;;;;;5.97;2.20;;;8.00;99.90;;;;;;4943620;29;20082;-78
2022/05/04 02:01:35;;;;;;;4.28;2.03;;;8.00;99.90;;;;;;4951501;29;20039;-78
2022/05/04 02:04:00;;;;;;;13.73;2.25;;;8.00;99.90;;;;;;4951503;29;20373;-78
2022/05/04 02:06:27;;;;;;;8.02;1.95;;;8.00;99.90;;;;;;4942993;29;20047;-78
2022/05/04 02:08:52;;;;;;;6.95;2.22;;;8.10;99.90;;;;;;4938880;28;20040;-78
2022/05/04 02:11:18;;;;;;;6.80;1.52;;;8.00;99.90;;;;;;4934360;29;20032;-78
2022/05/04 02:13:44;;;;;;;10.90;1.75;;;8.00;99.90;;;;;;4940746;29;20051;-78
2022/05/04 02:16:10;;;;;;;7.25;2.38;;;8.10;99.90;;;;;;4947072;28;20056;-78
2022/05/04 02:18:35;;;;;;;4.72;1.45;;;8.10;99.90;;;;;;4951747;29;20055;-78
2022/05/04 02:21:01;;;;;;;7.65;1.40;;;8.10;99.90;;;;;;4947359;29;20441;-78
2022/05/04 02:23:27;;;;;;;5.68;2.17;;;8.10;99.90;;;;;;4964970;28;20438;-78
2022/05/04 02:25:53;;;;;;;8.32;1.30;;;8.10;99.90;;;;;;4935498;29;20138;-78
2022/05/04 02:28:19;;;;;;;4.85;1.15;;;8.20;99.90;;;;;;4935944;29;20054;-78
2022/05/04 02:30:44;;;;;;;9.77;2.85;;;8.20;99.90;;;;;;4935679;29;20486;-78
2022/05/04 02:33:13;;;;;;;5.93;1.17;;;8.20;99.90;;;;;;4936171;29;20035;-78
2022/05/04 02:38:42;;;;;;;5.78;1.17;;;8.10;99.90;;;;;;4899780;29;20084;-78
2022/05/04 02:41:08;;;;;;;6.28;1.23;;;8.10;99.90;;;;;;4890361;29;20367;-78
2022/05/04 02:43:33;;;;;;;6.95;1.13;;;8.10;99.90;;;;;;4904234;29;20044;-78
2022/05/04 02:46:14;;;;;;;6.90;1.70;;;8.10;99.90;;;;;;4935364;29;20039;-78
2022/05/04 02:48:40;;;;;;;6.63;1.80;;;8.10;99.90;;;;;;4939806;29;20161;-78
2022/05/04 02:51:06;;;;;;;9.35;1.52;;;8.10;99.90;;;;;;4944458;29;20477;-78
2022/05/04 02:53:32;;;;;;;5.40;1.02;;;8.10;99.90;;;;;;4938578;29;20042;-78
2022/05/04 02:55:57;;;;;;;7.00;1.83;;;8.10;99.90;;;;;;4946972;29;20040;-78
2022/05/04 02:58:23;;;;;;;7.95;1.35;;;8.10;99.90;;;;;;4945760;29;20129;-78
2022/05/04 03:00:48;;;;;;;2.70;0.82;;;8.10;99.90;;;;;;4943310;29;20093;-78
2022/05/04 03:03:14;;;;;;;10.65;1.70;;;8.10;99.90;;;;;;4949000;29;20532;-78
2022/05/04 03:05:39;;;;;;;8.10;2.45;;;8.10;99.90;;;;;;4948029;29;20067;-78
2022/05/04 03:08:05;;;;;;;5.55;1.75;;;8.10;99.90;;;;;;4954349;28;20047;-78
2022/05/04 03:11:54;;;;;;;7.07;1.30;;;8.10;99.90;;;;;;4970392;28;20047;-78
2022/05/04 03:13:17;;;;;;;9.98;3.58;;;8.10;99.90;;;;;;4945819;29;20063;-78
2022/05/04 03:15:42;;;;;;;7.47;1.13;;;8.10;99.90;;;;;;4934847;29;20043;-78
2022/05/04 03:18:08;;;;;;;5.28;0.80;;;8.10;99.90;;;;;;4938986;29;20475;-78
2022/05/04 03:20:33;;;;;;;4.90;1.88;;;8.10;99.90;;;;;;4961894;28;20074;-78
2022/05/04 03:22:59;;;;;;;4.82;1.23;;;8.10;99.90;;;;;;4953305;28;20051;-78
2022/05/04 03:25:24;;;;;;;7.03;1.38;;;8.10;99.90;;;;;;4954151;29;20066;-78
2022/05/04 03:27:50;;;;;;;6.75;1.73;;;8.10;99.90;;;;;;4948441;28;20517;-78
2022/05/04 03:30:15;;;;;;;5.10;1.38;;;8.10;99.90;;;;;;4934586;29;20518;-78
2022/05/04 03:32:41;;;;;;;7.82;1.30;;;8.00;99.90;;;;;;4933475;29;20043;-79
2022/05/04 03:35:07;;;;;;;6.43;1.58;;;8.00;99.90;;;;;;4943292;29;20043;-78
2022/05/04 03:37:32;;;;;;;6.20;1.00;;;8.00;99.90;;;;;;4953248;28;20091;-78
2022/05/04 03:39:58;;;;;;;6.43;1.60;;;8.10;99.90;;;;;;4953656;29;20047;-78
2022/05/04 03:42:23;;;;;;;6.03;0.93;;;8.00;99.90;;;;;;4937663;29;20137;-78
2022/05/04 03:44:50;;;;;;;7.30;2.20;;;8.10;99.90;;;;;;4947268;29;20039;-78
2022/05/04 03:47:15;;;;;;;5.03;1.80;;;8.10;99.90;;;;;;4934295;29;20411;-78
2022/05/04 03:49:41;;;;;;;7.57;1.88;;;8.10;99.90;;;;;;4941587;29;20047;-78
2022/05/04 03:52:08;;;;;;;6.25;1.73;;;8.10;99.90;;;;;;4950975;29;20130;-78
2022/05/04 03:54:34;;;;;;;5.60;1.35;;;8.10;99.90;;;;;;4953451;29;20039;-78
2022/05/04 03:56:59;;;;;;;5.20;1.55;;;8.10;99.90;;;;;;4953154;28;20054;-78
2022/05/04 03:59:25;;;;;;;5.38;2.05;;;8.10;99.90;;;;;;4949712;29;20158;-78
2022/05/04 04:01:50;;;;;;;7.95;1.70;;;8.10;99.90;;;;;;4934129;29;20127;-78
2022/05/04 04:04:16;;;;;;;6.70;1.88;;;8.10;99.90;;;;;;4934484;29;20086;-78
2022/05/04 04:06:41;;;;;;;8.93;2.22;;;8.00;99.90;;;;;;4938590;29;20044;-78
2022/05/04 04:09:07;;;;;;;6.50;1.40;;;8.10;99.90;;;;;;4935357;29;20043;-78
2022/05/04 04:11:32;;;;;;;8.63;1.50;;;8.10;99.90;;;;;;4933999;29;20094;-78
2022/05/04 04:13:59;;;;;;;8.38;1.48;;;8.10;99.90;;;;;;4934016;29;20502;-78
2022/05/04 04:16:25;;;;;;;9.43;1.95;;;8.10;99.90;;;;;;4933591;29;20039;-78
2022/05/04 04:18:51;;;;;;;4.32;1.30;;;8.00;99.90;;;;;;4932823;29;20044;-78
2022/05/04 04:24:00;;;;;;;8.25;2.28;;;7.90;99.90;;;;;;4941620;29;20494;-78
2022/05/04 04:26:26;;;;;;;6.60;2.22;;;7.90;99.90;;;;;;4938457;28;20032;-78
2022/05/04 04:28:52;;;;;;;4.57;1.63;;;7.90;99.90;;;;;;4934029;29;20047;-78
2022/05/04 04:31:18;;;;;;;4.32;1.20;;;7.90;99.90;;;;;;4917793;29;20108;-78
2022/05/04 04:33:43;;;;;;;5.35;1.25;;;7.90;99.90;;;;;;4937311;28;20047;-78
2022/05/04 04:36:09;;;;;;;6.63;1.73;;;7.90;99.90;;;;;;4941315;28;20414;-78
2022/05/04 04:38:35;;;;;;;7.68;2.45;;;7.90;99.90;;;;;;4939258;29;20402;-78
2022/05/04 04:41:00;;;;;;;6.10;1.20;;;8.00;99.90;;;;;;4936786;29;20040;-78
2022/05/04 04:43:26;;;;;;;4.82;1.10;;;8.10;99.90;;;;;;4933737;29;20118;-78
2022/05/04 04:45:52;;;;;;;5.15;1.38;;;8.10;99.90;;;;;;4933299;29;20183;-78
2022/05/04 04:48:18;;;;;;;4.70;1.23;;;8.10;99.90;;;;;;4934449;29;20055;-78
2022/05/04 04:50:44;;;;;;;6.45;1.67;;;8.20;99.90;;;;;;4928507;29;20050;-78
2022/05/04 04:53:10;;;;;;;9.48;1.98;;;8.30;99.90;;;;;;4945661;29;20054;-78
2022/05/04 04:55:35;;;;;;;7.35;1.73;;;8.30;99.90;;;;;;4932909;29;20052;-78
2022/05/04 04:58:02;;;;;;;6.03;1.67;;;8.40;99.90;;;;;;4932976;29;20054;-78
2022/05/04 05:00:28;;;;;;;7.75;2.15;;;8.40;99.90;;;;;;4933054;29;20040;-78
2022/05/04 05:02:54;;;;;;;7.88;1.58;;;8.40;99.90;;;;;;4932394;29;20039;-79
2022/05/04 05:05:19;;;;;;;8.52;2.20;;;8.50;99.90;;;;;;4940775;29;20062;-78
2022/05/04 05:07:45;;;;;;;5.95;2.05;;;8.50;99.90;;;;;;4932625;29;20039;-79
2022/05/04 05:10:11;;;;;;;7.53;1.13;;;8.50;99.90;;;;;;4933007;29;20048;-79
2022/05/04 05:12:36;;;;;;;5.50;2.63;;;8.50;99.90;;;;;;4932799;29;20252;-78
2022/05/04 05:17:46;;;;;;;10.50;3.33;;;8.50;99.90;;;;;;4931531;29;20407;-79
2022/05/04 05:20:12;;;;;;;5.47;1.40;;;8.50;99.90;;;;;;4942510;29;20043;-79
2022/05/04 05:22:37;;;;;;;7.85;2.83;;;8.50;99.90;;;;;;4946109;29;20036;-79
2022/05/04 05:25:04;;;;;;;8.68;1.20;;;8.40;99.90;;;;;;4916661;29;20066;-79
2022/05/04 05:27:30;;;;;;;4.20;0.93;;;8.50;99.90;;;;;;4931895;29;20086;-79
2022/05/04 05:29:56;;;;;;;3.90;1.40;;;8.50;99.90;;;;;;4948109;29;20138;-79
2022/05/04 05:32:21;;;;;;;7.63;1.50;;;8.50;99.90;;;;;;4917573;29;20590;-79
2022/05/04 05:34:47;;;;;;;7.28;1.83;;;8.50;99.90;;;;;;4937921;29;20462;-79
2022/05/04 05:37:13;;;;;;;6.00;1.50;;;8.60;99.90;;;;;;4941239;28;20048;-79
2022/05/04 05:39:42;;;;;;;2.97;1.10;;;8.60;99.90;;;;;;4932791;29;20040;-79
2022/05/04 05:42:08;;;;;;;5.55;1.13;;;8.60;99.90;;;;;;4932578;29;20075;-79
2022/05/04 05:44:34;;;;;;;3.83;1.20;;;8.70;99.90;;;;;;4933487;29;20039;-79
2022/05/04 05:47:00;;;;;;;7.07;1.50;;;8.70;99.90;;;;;;4939742;28;20066;-79
2022/05/04 05:49:25;;;;;;;6.47;1.13;;;8.70;99.90;;;;;;4932630;29;20090;-79
2022/05/04 05:51:51;;;;;;;6.03;1.40;;;8.80;99.90;;;;;;4938426;29;20050;-79
2022/05/04 05:54:17;;;;;;;14.10;1.77;;;8.80;99.90;;;;;;4933475;29;20047;-79
2022/05/04 05:56:42;;;;;;;6.45;1.70;;;8.90;99.90;;;;;;4932024;29;20054;-79
2022/05/04 05:59:08;;;;;;;5.78;1.02;;;9.00;99.90;;;;;;4932330;29;20044;-79
2022/05/04 06:01:34;;;;;;;7.07;1.60;;;9.00;99.90;;;;;;4916648;29;20059;-79
2022/05/04 06:03:59;;;;;;;5.40;1.17;;;9.10;99.90;;;;;;4931748;29;20374;-79
2022/05/04 06:06:25;;;;;;;4.47;1.48;;;9.10;99.90;;;;;;4932368;29;20046;-79
2022/05/04 06:08:50;;;;;;;7.75;1.02;;;9.20;99.90;;;;;;4937101;29;20044;-77
2022/05/04 06:11:16;;;;;;;4.07;0.95;;;9.20;99.90;;;;;;4931621;29;20123;-77
2022/05/04 06:13:41;;;;;;;3.42;0.80;;;9.30;99.90;;;;;;4940091;29;20039;-77
2022/05/04 06:16:07;;;;;;;4.88;0.90;;;9.40;99.90;;;;;;4932007;29;20491;-77
2022/05/04 06:18:32;;;;;;;5.00;1.38;;;9.40;99.90;;;;;;4934925;29;20133;-77
2022/05/04 06:20:59;;;;;;;6.95;2.30;;;9.50;99.90;;;;;;4942127;29;20039;-78
2022/05/04 06:23:25;;;;;;;8.23;1.23;;;9.60;99.90;;;;;;4935090;29;20043;-80
2022/05/04 06:25:50;;;;;;;8.63;1.27;;;9.70;99.80;;;;;;4953004;28;20047;-80
2022/05/04 06:28:16;;;;;;;5.40;1.23;;;9.80;99.50;;;;;;4932672;29;20088;-77
2022/05/04 06:36:09;;;;;;;4.88;1.50;;;9.90;95.10;;;;;;4929900;29;20051;-77
2022/05/04 06:38:35;;;;;;;6.57;0.85;;;9.80;94.70;;;;;;4942506;29;20122;-77
2022/05/04 06:41:00;;;;;;;5.00;0.60;;;9.90;94.50;;;;;;4943345;29;20066;-77
2022/05/04 06:43:27;;;;;;;5.40;1.02;;;10.00;93.30;;;;;;4944275;29;20039;-77
2022/05/04 06:45:53;;;;;;;6.78;0.80;;;10.10;92.80;;;;;;4938949;29;20039;-78
2022/05/04 06:48:18;;;;;;;3.10;0.90;;;10.20;91.60;;;;;;4950252;29;20140;-78
2022/05/04 06:50:44;;;;;;;5.28;1.58;;;10.30;91.70;;;;;;4950998;29;20082;-77
2022/05/04 06:53:09;;;;;;;5.43;0.68;;;10.40;91.30;;;;;;4956855;28;20050;-77
2022/05/04 06:55:35;;;;;;;4.97;0.88;;;10.60;91.30;;;;;;4942820;29;20043;-78
2022/05/04 06:58:00;;;;;;;2.28;0.60;;;10.50;88.70;;;;;;4935260;28;20418;-77
2022/05/04 07:00:26;;;;;;;5.50;1.05;;;10.50;89.40;;;;;;4954460;29;20074;-77
2022/05/04 07:02:52;;;;;;;5.35;0.82;;;10.50;88.90;;;;;;4954676;29;20402;-77
2022/05/04 07:05:17;;;;;;;5.15;0.73;;;10.50;89.80;;;;;;4954605;28;20040;-77
2022/05/04 07:07:43;;;;;;;3.40;0.52;;;10.60;88.90;;;;;;4945179;28;20125;-77
2022/05/04 07:10:09;;;;;;;3.00;0.60;;;10.60;86.30;;;;;;4946183;29;20047;-77
2022/05/04 07:12:34;;;;;;;6.15;0.75;;;10.50;86.60;;;;;;4948008;29;20094;-77
2022/05/04 07:15:00;;;;;;;4.97;1.80;;;10.40;85.60;;;;;;4935528;29;20048;-77
2022/05/04 07:17:26;;;;;;;8.05;1.38;;;10.40;85.10;;;;;;4924199;29;20038;-78
2022/05/04 07:19:52;;;;;;;6.22;1.65;;;10.40;85.60;;;;;;4938600;29;20075;-78
2022/05/04 07:22:18;;;;;;;4.38;0.98;;;10.60;85.20;;;;;;4941234;29;20046;-79
2022/05/04 07:24:44;;;;;;;4.93;0.95;;;10.70;84.10;;;;;;4934507;29;20374;-79
2022/05/04 07:27:11;;;;;;;4.13;1.10;;;10.80;83.70;;;;;;4944530;28;20043;-79
2022/05/04 07:29:36;;;;;;;5.45;0.85;;;10.90;83.30;;;;;;4945582;29;20494;-79
2022/05/04 07:32:04;;;;;;;2.53;1.02;;;11.00;83.80;;;;;;4945788;29;20126;-79
2022/05/04 07:34:30;;;;;;;3.90;0.60;;;11.00;81.80;;;;;;4944993;29;20058;-79
2022/05/04 07:36:56;;;;;;;5.60;0.80;;;11.10;82.10;;;;;;4942199;28;20039;-79
2022/05/04 07:42:23;;;;;;;2.15;0.65;;;11.40;80.60;;;;;;4944488;29;20055;-79
2022/05/04 07:44:59;;;;;;;3.40;0.90;;;11.70;79.40;;;;;;4940637;29;20047;-79
2022/05/04 07:47:26;;;;;;;4.22;0.75;;;12.00;78.00;;;;;;4945367;28;20039;-79
2022/05/04 07:49:52;;;;;;;4.78;1.42;;;12.30;76.60;;;;;;4951713;29;20065;-79
2022/05/04 07:52:17;;;;;;;7.05;1.30;;;12.60;75.30;;;;;;4945462;29;20044;-80
2022/05/04 07:54:43;;;;;;;3.78;0.85;;;12.80;75.00;;;;;;4933704;29;20054;-80
2022/05/04 07:57:09;;;;;;;3.42;0.75;;;13.00;74.50;;;;;;4942622;28;20036;-80
2022/05/04 07:59:34;;;;;;;3.33;1.00;;;13.10;72.80;;;;;;4946875;29;20528;-80
2022/05/04 08:04:44;;;;;;;2.30;0.75;;;12.90;71.50;;;;;;4935479;29;20047;-80
2022/05/04 08:07:10;;;;;;;6.13;0.82;;;13.10;71.90;;;;;;4925367;29;20051;-80
2022/05/04 08:09:36;;;;;;;3.22;0.60;;;13.00;72.80;;;;;;4944253;28;20040;-81
2022/05/04 08:12:06;;;;;;;105.90;58.25;;;12.90;72.70;;;;;;4939464;29;20050;-81
2022/05/04 08:14:33;;;;;;;24.35;11.35;;;13.10;72.70;;;;;;4953784;29;20078;-77
2022/05/04 08:16:59;;;;;;;67.63;40.42;;;13.10;70.90;;;;;;4927334;29;20042;-77
2022/05/04 08:19:24;;;;;;;18.08;9.57;;;13.20;70.70;;;;;;4932588;29;20043;-78
2022/05/04 08:21:50;;;;;;;7.00;1.52;;;13.30;70.00;;;;;;4932066;29;20090;-77
2022/05/04 08:24:16;;;;;;;5.80;1.10;;;13.40;70.10;;;;;;4941132;29;20054;-78
2022/05/04 08:26:42;;;;;;;4.78;0.75;;;13.30;69.40;;;;;;4929678;29;20050;-78
2022/05/04 08:29:07;;;;;;;3.40;0.88;;;13.10;69.60;;;;;;4934103;29;20050;-77
2022/05/04 08:31:33;;;;;;;2.55;0.70;;;12.90;69.60;;;;;;4929844;29;20035;-79
2022/05/04 08:33:59;;;;;;;4.60;0.90;;;12.90;68.80;;;;;;4934758;29;20035;-79
2022/05/04 08:36:24;;;;;;;7.03;1.02;;;13.20;69.00;;;;;;4972674;23;20051;31
2022/05/04 08:38:50;;;;;;;2.50;0.77;;;13.40;67.90;;;;;;4930014;29;20051;-77
2022/05/04 08:41:15;;;;;;;8.68;1.63;;;13.40;66.60;;;;;;4921660;29;20139;-76
2022/05/04 08:43:43;;;;;;;7.05;1.33;;;13.30;68.10;;;;;;4926369;29;20510;-76
2022/05/04 08:46:13;;;;;;;4.15;0.88;;;13.20;66.60;;;;;;4947960;28;20058;-76
2022/05/04 08:48:40;;;;;;;6.47;0.82;;;13.30;67.70;;;;;;4926399;29;20125;-75
2022/05/04 08:51:07;;;;;;;3.30;0.60;;;13.20;66.90;;;;;;4919084;29;20047;-74
2022/05/04 08:53:34;;;;;;;5.07;0.98;;;13.30;67.10;;;;;;4906177;29;20106;-76
2022/05/04 08:56:00;;;;;;;6.50;1.30;;;13.70;66.90;;;;;;4926826;29;20080;-75
2022/05/04 08:58:26;;;;;;;5.82;1.70;;;13.90;66.80;;;;;;4931143;29;20090;-76
2022/05/04 09:00:51;;;;;;;3.22;0.85;;;13.90;66.80;;;;;;4918540;29;20048;-76
2022/05/04 09:03:18;;;;;;;3.03;0.55;;;13.80;67.00;;;;;;4931205;29;20036;-76
2022/05/04 09:05:53;;;;;;;6.50;0.88;;;13.70;66.70;;;;;;4903250;29;20672;-75
2022/05/04 09:08:18;;;;;;;3.78;1.20;;;13.20;65.90;;;;;;4947478;28;20050;-76
2022/05/04 09:10:44;;;;;;;8.55;1.38;;;13.00;67.40;;;;;;4916436;29;20131;-76
2022/05/04 09:13:11;;;;;;;6.07;1.30;;;13.00;67.50;;;;;;4947572;28;20059;-76
2022/05/04 09:15:40;;;;;;;5.22;1.10;;;13.10;67.70;;;;;;4929664;29;20374;-76
2022/05/04 09:18:08;;;;;;;5.22;0.63;;;13.20;67.40;;;;;;4924245;29;20067;-76
2022/05/04 09:20:57;;;;;;;7.35;0.73;;;13.40;67.20;;;;;;4919625;29;20529;-76
2022/05/04 09:23:28;;;;;;;3.67;0.90;;;13.60;67.00;;;;;;4931228;29;20043;-77
2022/05/04 09:25:58;;;;;;;3.90;1.23;;;13.90;65.80;;;;;;4921147;29;20051;-76
2022/05/04 09:28:26;;;;;;;5.40;0.90;;;14.30;65.20;;;;;;4911507;29;20517;-76
2022/05/04 09:31:03;;;;;;;5.28;0.90;;;14.50;64.40;;;;;;4923206;29;20445;-76
2022/05/04 09:33:31;;;;;;;5.40;1.23;;;14.80;62.90;;;;;;4932859;29;20039;-77
2022/05/04 09:35:59;;;;;;;8.43;1.10;;;15.30;61.90;;;;;;4921186;29;20040;-77
2022/05/04 09:46:53;;;;;;;3.28;0.70;;;15.70;61.40;;;;;;4920428;29;20068;-78
2022/05/04 09:49:20;;;;;;;4.20;1.20;;;15.40;61.60;;;;;;4927319;29;20168;-77
2022/05/04 09:51:51;;;;;;;3.10;1.27;;;15.00;61.70;;;;;;4914392;29;20046;-77
2022/05/04 09:54:25;;;;;;;6.65;0.63;;;14.80;62.50;;;;;;4942188;29;20074;-77
2022/05/04 09:56:53;;;;;;;4.28;0.95;;;15.00;61.90;;;;;;4936520;29;20031;-77
2022/05/04 09:59:23;;;;;;;6.95;1.70;;;15.20;62.00;;;;;;4922726;29;20382;-77
2022/05/04 10:01:51;;;;;;;2.08;0.63;;;15.50;61.90;;;;;;4943266;29;20060;-77
2022/05/04 10:04:20;;;;;;;3.50;0.65;;;15.60;61.00;;;;;;4941405;29;20040;-77
2022/05/04 10:06:50;;;;;;;7.20;2.15;;;15.90;60.80;;;;;;4929194;29;20044;-77
2022/05/04 10:09:17;;;;;;;231.43;134.65;;;16.00;59.40;;;;;;4942632;29;20122;-77
2022/05/04 10:11:42;;;;;;;31.55;18.17;;;15.90;59.40;;;;;;4945443;29;20414;-76
2022/05/04 10:14:12;;;;;;;320.77;249.05;;;15.80;59.00;;;;;;4941847;29;20043;-77
2022/05/04 10:16:40;;;;;;;14.15;7.85;;;15.80;59.70;;;;;;4927976;29;20057;-76
2022/05/04 10:19:13;;;;;;;214.80;146.40;;;16.10;59.80;;;;;;4910942;29;20142;-77
2022/05/04 10:21:42;;;;;;;19.38;10.75;;;16.20;59.20;;;;;;4924433;29;20050;-77
2022/05/04 10:24:09;;;;;;;7.93;3.15;;;16.40;59.00;;;;;;4936738;29;20553;-77
2022/05/04 10:26:36;;;;;;;4.80;1.17;;;16.70;58.00;;;;;;4932749;29;20051;-77
2022/05/04 10:32:07;;;;;;;5.35;1.10;;;17.30;54.80;;;;;;4938110;28;20621;-76
2022/05/04 10:34:39;;;;;;;4.55;1.63;;;17.20;56.30;;;;;;4945630;29;20449;-77
2022/05/04 10:37:05;;;;;;;6.13;1.10;;;17.20;56.50;;;;;;4943551;29;20039;-77
2022/05/04 10:39:31;;;;;;;3.30;0.70;;;17.20;56.60;;;;;;4942650;29;20099;-77
2022/05/04 10:41:57;;;;;;;5.20;1.50;;;17.20;56.30;;;;;;4940709;29;20043;-77
2022/05/04 10:44:56;;;;;;;7.45;1.85;;;17.20;55.90;;;;;;4937496;29;20036;-77
2022/05/04 10:47:25;;;;;;;5.28;1.42;;;17.50;55.70;;;;;;4943424;29;20039;-77
2022/05/04 10:49:59;;;;;;;6.18;0.90;;;17.40;54.70;;;;;;4946318;29;20098;-78
2022/05/04 10:52:24;;;;;;;6.40;1.35;;;17.30;54.40;;;;;;4943149;29;20047;-78
2022/05/04 10:54:50;;;;;;;6.43;1.00;;;17.60;56.90;;;;;;4947451;29;20040;-79
2022/05/04 10:57:15;;;;;;;4.13;1.05;;;18.10;55.20;;;;;;4934031;29;20047;-81
2022/05/04 10:59:41;;;;;;;6.28;1.40;;;18.20;53.50;;;;;;4919072;29;20039;-78
2022/05/04 11:02:12;;;;;;;6.00;1.10;;;18.10;54.60;;;;;;4936086;29;20121;-78
2022/05/04 11:04:40;;;;;;;4.95;1.55;;;18.00;55.00;;;;;;4948048;29;20042;-78
2022/05/04 11:07:07;;;;;;;6.35;1.20;;;17.70;55.40;;;;;;4954871;29;20107;-78
2022/05/04 11:09:42;;;;;;;6.35;1.60;;;17.70;54.60;;;;;;4925653;29;20044;-78
2022/05/04 11:12:10;;;;;;;6.22;1.10;;;17.50;53.90;;;;;;4917854;29;20051;-78
2022/05/04 11:14:36;;;;;;;3.78;1.13;;;17.40;55.00;;;;;;4934911;29;20058;-78
2022/05/04 11:17:08;;;;;;;6.13;0.90;;;17.90;55.10;;;;;;4930132;29;20044;-78
2022/05/04 11:19:34;;;;;;;4.90;1.25;;;18.40;56.40;;;;;;4940613;29;20187;-77
2022/05/04 11:22:01;;;;;;;4.07;1.08;;;18.90;54.00;;;;;;4947920;29;21062;-78
2022/05/04 11:24:28;;;;;;;6.00;1.15;;;19.40;52.70;;;;;;4934644;29;20383;-78
2022/05/04 11:26:55;;;;;;;6.30;1.95;;;19.20;51.20;;;;;;4939133;29;20098;-78
2022/05/04 11:29:23;;;;;;;3.78;0.80;;;18.60;51.50;;;;;;4930551;29;20059;-78
2022/05/04 11:31:56;;;;;;;5.13;1.10;;;18.30;53.00;;;;;;4943992;29;20115;-78
2022/05/04 11:34:24;;;;;;;6.25;1.35;;;18.20;52.90;;;;;;4944903;29;20083;-79
2022/05/04 11:36:51;;;;;;;3.67;1.00;;;18.10;53.00;;;;;;4923110;29;20035;-78
2022/05/04 11:39:23;;;;;;;5.07;1.23;;;18.10;52.80;;;;;;4950068;29;20118;-79
2022/05/04 11:41:51;;;;;;;63.10;41.00;;;18.20;53.10;;;;;;4934677;29;20051;-78
2022/05/04 11:44:18;;;;;;;34.90;20.38;;;18.30;53.30;;;;;;4947148;28;20094;-78
2022/05/04 11:46:48;;;;;;;159.18;99.78;;;18.20;52.80;;;;;;4921394;29;20048;-78
2022/05/04 11:49:14;;;;;;;18.65;11.85;;;17.90;52.50;;;;;;4945387;29;20075;-78
2022/05/04 11:51:42;;;;;;;19.83;11.75;;;17.80;52.90;;;;;;4943279;29;20039;-77
2022/05/04 11:54:07;;;;;;;4.13;2.60;;;18.30;52.20;;;;;;4943246;29;20035;-78
2022/05/04 11:56:34;;;;;;;25.20;16.58;;;18.60;52.80;;;;;;4943444;29;20070;-77
2022/05/04 11:59:00;;;;;;;4.40;1.75;;;18.60;53.00;;;;;;4934535;29;20387;-77
2022/05/04 12:01:26;;;;;;;5.43;1.48;;;18.40;52.80;;;;;;4937097;29;20062;-77
2022/05/04 12:03:52;;;;;;;4.93;0.93;;;18.50;53.10;;;;;;4942606;29;20118;-77
2022/05/04 12:06:19;;;;;;;6.18;1.98;;;18.60;53.30;;;;;;4940524;29;20071;-76
2022/05/04 12:08:45;;;;;;;6.88;2.03;;;18.80;52.60;;;;;;4944782;29;20055;-76
2022/05/04 12:11:11;;;;;;;7.03;1.38;;;19.00;51.90;;;;;;4943329;29;20151;-76
2022/05/04 12:13:39;;;;;;;5.13;1.65;;;19.10;51.50;;;;;;4935025;29;20065;-76
2022/05/04 12:16:07;;;;;;;3.30;1.20;;;19.30;51.40;;;;;;4936247;29;20128;-77
2022/05/04 12:18:35;;;;;;;3.83;1.50;;;19.30;50.10;;;;;;4933642;29;20107;-77
2022/05/04 12:21:05;;;;;;;4.07;1.50;;;19.10;50.50;;;;;;4934325;29;20076;-77
2022/05/04 12:23:31;;;;;;;3.75;1.73;;;18.80;50.10;;;;;;4941986;29;20035;-77
2022/05/04 12:25:57;;;;;;;3.83;1.10;;;18.60;51.40;;;;;;4949475;29;20100;-77
2022/05/04 12:28:23;;;;;;;5.57;1.30;;;18.60;51.60;;;;;;4945903;29;20074;-77
2022/05/04 12:33:34;;;;;;;6.25;2.00;;;18.90;50.30;;;;;;4934754;29;20479;-76
2022/05/04 12:36:11;;;;;;;4.28;1.40;;;19.00;50.30;;;;;;4935472;29;20531;-78
2022/05/04 12:38:38;;;;;;;6.25;1.52;;;19.40;50.60;;;;;;4933499;29;20092;-78
2022/05/04 12:41:06;;;;;;;5.93;1.73;;;19.80;49.80;;;;;;4932773;29;20094;-78
2022/05/04 12:43:34;;;;;;;5.80;2.08;;;20.20;50.00;;;;;;4928979;29;20047;-77
2022/05/04 12:46:01;;;;;;;6.55;1.50;;;20.20;50.10;;;;;;4937000;29;20046;-77
2022/05/04 12:48:27;;;;;;;6.97;1.52;;;20.20;49.80;;;;;;4932233;29;20321;-77
2022/05/04 12:50:55;;;;;;;5.47;1.55;;;20.50;49.70;;;;;;4929757;29;20071;-77
2022/05/04 12:53:22;;;;;;;7.18;1.45;;;20.50;49.70;;;;;;4942423;29;20486;-77
2022/05/04 12:58:32;;;;;;;3.40;1.25;;;19.80;49.00;;;;;;4928420;29;20047;-77
2022/05/04 13:00:57;;;;;;;11.57;2.17;;;19.30;49.60;;;;;;4933998;29;20043;-77
2022/05/04 13:03:23;;;;;;;5.30;1.42;;;18.90;50.30;;;;;;4943166;29;20054;-77
2022/05/04 13:05:48;;;;;;;113.57;88.20;;;18.50;49.50;;;;;;4941367;29;20518;-77
2022/05/04 13:08:14;;;;;;;10.88;5.82;;;18.60;50.70;;;;;;4928761;29;20141;-77
2022/05/04 13:10:41;;;;;;;4.70;2.42;;;19.00;51.40;;;;;;4929656;29;20039;-79
2022/05/04 13:13:06;;;;;;;241.60;192.10;;;19.50;50.50;;;;;;4940198;29;20090;-78
2022/05/04 13:15:33;;;;;;;9.07;5.10;;;19.80;50.10;;;;;;4933624;29;20059;-78
2022/05/04 13:17:59;;;;;;;15.65;5.10;;;20.00;47.60;;;;;;4931451;29;20094;-78
2022/05/04 13:20:25;;;;;;;6.97;2.97;;;20.00;47.40;;;;;;4918965;29;20043;-78
2022/05/04 13:22:51;;;;;;;3.72;1.85;;;19.90;47.90;;;;;;4941882;29;20046;-78
2022/05/04 13:25:17;;;;;;;7.15;1.42;;;19.70;49.00;;;;;;4951397;29;20079;-79
2022/05/04 13:27:43;;;;;;;6.97;1.58;;;19.60;49.10;;;;;;4952299;29;20050;-77
2022/05/04 13:30:09;;;;;;;4.50;1.63;;;19.80;48.90;;;;;;4931039;29;20050;-79